createdAt,value
2017-09-16T00:01:30.323Z,0
2017-09-16T00:06:35.717Z,0
2017-09-16T00:11:41.780Z,0
2017-09-16T00:16:46.169Z,0
2017-09-16T00:21:51.901Z,0
2017-09-16T00:26:57.294Z,0
2017-09-16T00:32:02.687Z,0
2017-09-16T00:37:07.749Z,0
2017-09-16T00:42:13.142Z,0
2017-09-16T00:47:18.870Z,0
2017-09-16T00:52:24.269Z,0
2017-09-16T00:57:29.329Z,0
2017-09-16T01:02:34.384Z,0
2017-09-16T01:07:39.816Z,0
2017-09-16T01:12:45.510Z,0
2017-09-16T01:17:50.568Z,0
2017-09-16T01:22:55.292Z,0
2017-09-16T01:28:01.356Z,0
2017-09-16T01:33:06.758Z,0
2017-09-16T01:38:12.146Z,0
2017-09-16T01:43:17.540Z,0
2017-09-16T01:48:22.606Z,0
2017-09-16T01:53:27.664Z,0
2017-09-16T01:58:32.387Z,0
2017-09-16T02:03:37.110Z,0
2017-09-16T02:08:42.839Z,0
2017-09-16T02:13:48.230Z,0
2017-09-16T02:18:53.287Z,0
2017-09-16T02:23:58.352Z,0
2017-09-16T02:29:03.747Z,0
2017-09-16T02:34:09.474Z,0
2017-09-16T02:39:14.535Z,0
2017-09-16T02:44:19.263Z,0
2017-09-16T02:49:23.654Z,0
2017-09-16T02:54:28.376Z,0
2017-09-16T02:59:33.769Z,0
2017-09-16T03:04:39.164Z,0
2017-09-16T03:09:44.224Z,0
2017-09-16T03:14:49.953Z,0
2017-09-16T03:19:55.350Z,0
2017-09-16T03:25:00.414Z,0
2017-09-16T03:30:06.137Z,0
2017-09-16T03:35:11.866Z,0
2017-09-16T03:40:16.922Z,0
2017-09-16T03:45:21.980Z,0
2017-09-16T03:50:26.701Z,0
2017-09-16T03:55:32.428Z,0
2017-09-16T04:00:37.820Z,0
2017-09-16T04:05:42.879Z,0
2017-09-16T04:10:47.936Z,0
2017-09-16T04:15:52.660Z,0
2017-09-16T04:20:57.717Z,0
2017-09-16T04:26:02.776Z,0
2017-09-16T04:31:07.834Z,0
2017-09-16T04:36:12.892Z,2
2017-09-16T04:41:17.951Z,2
2017-09-16T04:46:23.678Z,3
2017-09-16T04:51:29.077Z,5
2017-09-16T04:56:34.801Z,8
2017-09-16T05:01:40.192Z,12
2017-09-16T05:06:45.596Z,18
2017-09-16T05:11:50.643Z,22
2017-09-16T05:16:56.036Z,28
2017-09-16T05:22:00.425Z,44
2017-09-16T05:27:05.818Z,44
2017-09-16T05:32:11.214Z,53
2017-09-16T05:37:15.941Z,56
2017-09-16T05:42:21.336Z,78
2017-09-16T05:47:26.056Z,66
2017-09-16T05:52:31.112Z,82
2017-09-16T05:57:36.505Z,65
2017-09-16T06:02:41.899Z,74
2017-09-16T06:07:47.293Z,80
2017-09-16T06:12:51.686Z,86
2017-09-16T06:17:57.078Z,82
2017-09-16T06:23:02.142Z,88
2017-09-16T06:28:07.536Z,179
2017-09-16T06:33:12.261Z,226
2017-09-16T06:38:16.988Z,175
2017-09-16T06:43:22.055Z,184
2017-09-16T06:48:27.788Z,227
2017-09-16T06:53:32.179Z,262
2017-09-16T06:58:37.577Z,286
2017-09-16T07:03:42.973Z,279
2017-09-16T07:08:48.035Z,259
2017-09-16T07:13:53.100Z,270
2017-09-16T07:18:57.828Z,269
2017-09-16T07:24:03.225Z,420
2017-09-16T07:29:08.281Z,375
2017-09-16T07:34:13.280Z,594
2017-09-16T07:39:19.010Z,819
2017-09-16T07:44:24.743Z,955
2017-09-16T07:49:29.471Z,823
2017-09-16T07:54:35.201Z,1095
2017-09-16T07:59:40.257Z,654
2017-09-16T08:04:45.986Z,806
2017-09-16T08:09:51.051Z,771
2017-09-16T08:14:56.782Z,541
2017-09-16T08:20:01.171Z,555
2017-09-16T08:25:06.566Z,649
2017-09-16T08:30:11.964Z,584
2017-09-16T08:35:17.356Z,554
2017-09-16T08:40:23.092Z,525
2017-09-16T08:45:28.481Z,580
2017-09-16T08:50:34.226Z,1462
2017-09-16T08:55:39.616Z,806
2017-09-16T09:00:44.357Z,706
2017-09-16T09:05:50.090Z,653
2017-09-16T09:10:55.154Z,580
2017-09-16T09:16:00.563Z,627
2017-09-16T09:21:06.296Z,426
2017-09-16T09:26:12.026Z,608
2017-09-16T09:31:17.426Z,592
2017-09-16T09:36:23.164Z,666
2017-09-16T09:41:28.227Z,691
2017-09-16T09:46:33.954Z,542
2017-09-16T09:51:39.349Z,515
2017-09-16T09:56:44.071Z,510
2017-09-16T10:01:49.465Z,653
2017-09-16T10:06:54.526Z,521
2017-09-16T10:11:59.923Z,551
2017-09-16T10:17:05.324Z,810
2017-09-16T10:22:10.740Z,776
2017-09-16T10:27:16.111Z,806
2017-09-16T10:32:20.864Z,861
2017-09-16T10:37:25.904Z,943
2017-09-16T10:42:30.294Z,605
2017-09-16T10:47:34.684Z,822
2017-09-16T10:52:39.744Z,953
2017-09-16T10:57:45.489Z,917
2017-09-16T11:02:50.558Z,503
2017-09-16T11:07:55.966Z,641
2017-09-16T11:13:00.690Z,520
2017-09-16T11:18:06.766Z,528
2017-09-16T11:23:12.173Z,536
2017-09-16T11:28:17.898Z,525
2017-09-16T11:33:22.633Z,666
2017-09-16T11:38:27.693Z,514
2017-09-16T11:43:32.777Z,475
2017-09-16T11:48:38.153Z,464
2017-09-16T11:53:43.551Z,616
2017-09-16T11:58:48.949Z,836
2017-09-16T12:03:54.370Z,702
2017-09-16T12:08:59.759Z,722
2017-09-16T12:14:05.492Z,657
2017-09-16T12:19:11.221Z,689
2017-09-16T12:24:16.614Z,279
2017-09-16T12:29:22.022Z,208
2017-09-16T12:34:27.083Z,644
2017-09-16T12:39:32.142Z,480
2017-09-16T12:44:37.200Z,355
2017-09-16T12:49:42.935Z,287
2017-09-16T12:54:48.346Z,178
2017-09-16T12:59:54.083Z,201
2017-09-16T13:04:59.823Z,155
2017-09-16T13:10:04.550Z,116
2017-09-16T13:15:10.280Z,181
2017-09-16T13:20:16.006Z,207
2017-09-16T13:25:21.738Z,235
2017-09-16T13:30:27.131Z,397
2017-09-16T13:35:32.530Z,409
2017-09-16T13:40:37.257Z,195
2017-09-16T13:45:42.652Z,161
2017-09-16T13:50:48.053Z,288
2017-09-16T13:55:53.451Z,360
2017-09-16T14:00:58.514Z,370
2017-09-16T14:06:03.576Z,328
2017-09-16T14:11:09.029Z,366
2017-09-16T14:16:14.440Z,402
2017-09-16T14:21:19.502Z,430
2017-09-16T14:26:24.896Z,481
2017-09-16T14:31:29.966Z,497
2017-09-16T14:36:35.714Z,552
2017-09-16T14:41:41.448Z,551
2017-09-16T14:46:46.175Z,504
2017-09-16T14:51:51.566Z,425
2017-09-16T14:56:57.298Z,482
2017-09-16T15:02:02.728Z,477
2017-09-16T15:07:08.124Z,447
2017-09-16T15:12:13.188Z,402
2017-09-16T15:17:18.585Z,363
2017-09-16T15:22:23.311Z,377
2017-09-16T15:27:28.046Z,372
2017-09-16T15:32:33.108Z,355
2017-09-16T15:37:38.171Z,334
2017-09-16T15:42:43.570Z,311
2017-09-16T15:47:48.732Z,272
2017-09-16T15:52:54.131Z,233
2017-09-16T15:57:59.190Z,154
2017-09-16T16:03:04.249Z,117
2017-09-16T16:08:09.646Z,162
2017-09-16T16:13:15.041Z,178
2017-09-16T16:18:20.108Z,160
2017-09-16T16:23:25.172Z,130
2017-09-16T16:28:29.961Z,151
2017-09-16T16:33:35.689Z,126
2017-09-16T16:38:40.084Z,111
2017-09-16T16:43:45.487Z,103
2017-09-16T16:48:51.210Z,69
2017-09-16T16:53:56.946Z,44
2017-09-16T16:59:02.008Z,46
2017-09-16T17:04:07.071Z,35
2017-09-16T17:09:12.801Z,29
2017-09-16T17:14:17.886Z,28
2017-09-16T17:19:22.604Z,23
2017-09-16T17:24:27.659Z,22
2017-09-16T17:29:33.059Z,16
2017-09-16T17:34:38.453Z,11
2017-09-16T17:39:42.868Z,6
2017-09-16T17:44:48.273Z,4
2017-09-16T17:49:53.339Z,2
2017-09-16T17:54:58.388Z,1
2017-09-16T18:00:03.779Z,1
2017-09-16T18:05:08.839Z,0
2017-09-16T18:10:14.242Z,0
2017-09-16T18:15:19.299Z,0
2017-09-16T18:20:25.028Z,0
2017-09-16T18:25:30.773Z,0
2017-09-16T18:30:36.845Z,0
2017-09-16T18:35:41.917Z,0
2017-09-16T18:40:46.992Z,0
2017-09-16T18:45:51.590Z,0
2017-09-16T18:50:56.656Z,0
2017-09-16T18:56:02.062Z,0
2017-09-16T19:01:07.463Z,0
2017-09-16T19:06:12.860Z,0
2017-09-16T19:11:18.594Z,0
2017-09-16T19:16:23.991Z,0
2017-09-16T19:21:28.715Z,0
2017-09-16T19:26:33.112Z,0
2017-09-16T19:31:38.521Z,0
2017-09-16T19:36:42.912Z,0
2017-09-16T19:41:47.983Z,0
2017-09-16T19:46:53.722Z,0
2017-09-16T19:51:58.793Z,0
2017-09-16T19:57:04.860Z,0
2017-09-16T20:02:10.265Z,0
2017-09-16T20:07:14.669Z,0
2017-09-16T20:12:19.407Z,0
2017-09-16T20:17:24.825Z,0
2017-09-16T20:22:29.557Z,0
2017-09-16T20:27:34.957Z,0
2017-09-16T20:32:41.030Z,0
2017-09-16T20:37:46.427Z,0
2017-09-16T20:42:51.833Z,0
2017-09-16T20:47:56.901Z,0
2017-09-16T20:53:01.631Z,0
2017-09-16T20:58:06.698Z,0
2017-09-16T21:03:11.765Z,0
2017-09-16T21:08:16.830Z,0
2017-09-16T21:13:21.896Z,0
2017-09-16T21:18:27.633Z,0
2017-09-16T21:23:33.371Z,0
2017-09-16T21:28:38.433Z,0
2017-09-16T21:33:44.501Z,0
2017-09-16T21:38:50.564Z,0
2017-09-16T21:43:55.976Z,0
2017-09-16T21:49:00.697Z,0
2017-09-16T21:54:06.100Z,0
2017-09-16T21:59:11.160Z,0
2017-09-16T22:04:16.092Z,0
2017-09-16T22:09:21.148Z,0
2017-09-16T22:14:26.558Z,0
2017-09-16T22:19:31.613Z,0
2017-09-16T22:24:36.682Z,0
2017-09-16T22:29:41.405Z,0
2017-09-16T22:34:46.810Z,0
2017-09-16T22:39:51.874Z,0
2017-09-16T22:44:56.319Z,0
2017-09-16T22:50:02.071Z,0
2017-09-16T22:55:06.794Z,0
2017-09-16T23:00:11.516Z,0
2017-09-16T23:05:16.241Z,0
2017-09-16T23:10:20.633Z,0
2017-09-16T23:15:26.024Z,0
2017-09-16T23:20:31.753Z,0
2017-09-16T23:25:36.814Z,0
2017-09-16T23:30:41.873Z,0
2017-09-16T23:35:47.259Z,0
2017-09-16T23:40:53.341Z,0
2017-09-16T23:45:58.759Z,0
2017-09-16T23:51:04.147Z,0
2017-09-16T23:56:09.884Z,0
